sensor_id;sensor_type;location;lat;lon;timestamp;temperature;humidity
15156;DHT22;7678;50.058;8.306;2023-04-06T00:02:17;2.20;99.90
15156;DHT22;7678;50.058;8.306;2023-04-06T00:04:46;2.00;99.90
15156;DHT22;7678;50.058;8.306;2023-04-06T00:07:15;1.90;99.90
15156;DHT22;7678;50.058;8.306;2023-04-06T00:09:43;1.80;99.90
15156;DHT22;7678;50.058;8.306;2023-04-06T00:12:11;1.90;99.90
15156;DHT22;7678;50.058;8.306;2023-04-06T00:14:39;1.90;99.90
15156;DHT22;7678;50.058;8.306;2023-04-06T00:17:08;1.90;99.90
15156;DHT22;7678;50.058;8.306;2023-04-06T00:19:36;1.70;99.90
15156;DHT22;7678;50.058;8.306;2023-04-06T00:22:04;1.50;99.90
15156;DHT22;7678;50.058;8.306;2023-04-06T00:24:34;1.50;99.90
15156;DHT22;7678;50.058;8.306;2023-04-06T00:27:02;1.50;99.90
15156;DHT22;7678;50.058;8.306;2023-04-06T00:29:30;1.50;99.90
15156;DHT22;7678;50.058;8.306;2023-04-06T00:31:58;1.70;99.90
15156;DHT22;7678;50.058;8.306;2023-04-06T00:34:26;1.60;99.90
15156;DHT22;7678;50.058;8.306;2023-04-06T00:36:55;1.60;99.90
15156;DHT22;7678;50.058;8.306;2023-04-06T00:39:23;1.70;99.90
15156;DHT22;7678;50.058;8.306;2023-04-06T00:41:52;1.70;99.90
15156;DHT22;7678;50.058;8.306;2023-04-06T00:44:21;1.70;99.90
15156;DHT22;7678;50.058;8.306;2023-04-06T00:46:50;1.90;99.90
15156;DHT22;7678;50.058;8.306;2023-04-06T00:49:18;1.80;99.90
15156;DHT22;7678;50.058;8.306;2023-04-06T00:51:46;1.50;99.90
15156;DHT22;7678;50.058;8.306;2023-04-06T00:54:14;1.40;99.90
15156;DHT22;7678;50.058;8.306;2023-04-06T00:56:42;1.40;99.90
15156;DHT22;7678;50.058;8.306;2023-04-06T00:59:12;1.40;99.90
15156;DHT22;7678;50.058;8.306;2023-04-06T01:01:40;1.40;99.90
15156;DHT22;7678;50.058;8.306;2023-04-06T01:04:09;1.50;99.90
15156;DHT22;7678;50.058;8.306;2023-04-06T01:06:37;1.50;99.90
15156;DHT22;7678;50.058;8.306;2023-04-06T01:09:05;1.60;99.50
15156;DHT22;7678;50.058;8.306;2023-04-06T01:11:35;1.50;99.90
15156;DHT22;7678;50.058;8.306;2023-04-06T01:14:04;1.60;99.90
15156;DHT22;7678;50.058;8.306;2023-04-06T01:16:34;1.70;99.90
15156;DHT22;7678;50.058;8.306;2023-04-06T01:19:07;1.90;99.90
15156;DHT22;7678;50.058;8.306;2023-04-06T01:21:37;1.70;99.90
15156;DHT22;7678;50.058;8.306;2023-04-06T01:24:07;1.40;99.90
15156;DHT22;7678;50.058;8.306;2023-04-06T01:26:37;1.10;99.90
15156;DHT22;7678;50.058;8.306;2023-04-06T01:29:05;1.20;99.90
15156;DHT22;7678;50.058;8.306;2023-04-06T01:31:34;1.10;99.90
15156;DHT22;7678;50.058;8.306;2023-04-06T01:34:03;1.00;99.90
15156;DHT22;7678;50.058;8.306;2023-04-06T01:36:31;0.70;99.90
15156;DHT22;7678;50.058;8.306;2023-04-06T01:38:59;1.00;99.90
15156;DHT22;7678;50.058;8.306;2023-04-06T01:41:29;1.20;99.90
15156;DHT22;7678;50.058;8.306;2023-04-06T01:43:57;1.30;99.90
15156;DHT22;7678;50.058;8.306;2023-04-06T01:46:25;1.00;99.90
15156;DHT22;7678;50.058;8.306;2023-04-06T01:48:53;0.90;99.90
15156;DHT22;7678;50.058;8.306;2023-04-06T01:51:22;0.80;99.90
15156;DHT22;7678;50.058;8.306;2023-04-06T01:53:51;0.80;99.90
15156;DHT22;7678;50.058;8.306;2023-04-06T01:56:19;0.80;99.90
15156;DHT22;7678;50.058;8.306;2023-04-06T01:58:49;0.70;99.90
15156;DHT22;7678;50.058;8.306;2023-04-06T02:01:17;0.60;99.90
15156;DHT22;7678;50.058;8.306;2023-04-06T02:03:45;0.70;99.90
15156;DHT22;7678;50.058;8.306;2023-04-06T02:06:13;0.70;99.90
15156;DHT22;7678;50.058;8.306;2023-04-06T02:08:41;0.50;99.90
15156;DHT22;7678;50.058;8.306;2023-04-06T02:11:09;0.40;99.90
15156;DHT22;7678;50.058;8.306;2023-04-06T02:13:38;0.60;99.90
15156;DHT22;7678;50.058;8.306;2023-04-06T02:16:07;0.70;99.90
15156;DHT22;7678;50.058;8.306;2023-04-06T02:18:36;0.80;99.90
15156;DHT22;7678;50.058;8.306;2023-04-06T02:21:04;0.70;99.90
15156;DHT22;7678;50.058;8.306;2023-04-06T02:23:32;0.70;99.90
15156;DHT22;7678;50.058;8.306;2023-04-06T02:26:00;0.40;99.90
15156;DHT22;7678;50.058;8.306;2023-04-06T02:28:28;0.40;99.90
15156;DHT22;7678;50.058;8.306;2023-04-06T02:30:56;0.40;99.90
15156;DHT22;7678;50.058;8.306;2023-04-06T02:33:25;0.30;99.90
15156;DHT22;7678;50.058;8.306;2023-04-06T02:35:54;0.50;99.90
15156;DHT22;7678;50.058;8.306;2023-04-06T02:38:22;0.60;99.90
15156;DHT22;7678;50.058;8.306;2023-04-06T02:40:50;0.80;99.90
15156;DHT22;7678;50.058;8.306;2023-04-06T02:43:18;0.80;99.90
15156;DHT22;7678;50.058;8.306;2023-04-06T02:45:47;0.50;99.90
15156;DHT22;7678;50.058;8.306;2023-04-06T02:48:15;0.50;99.90
15156;DHT22;7678;50.058;8.306;2023-04-06T02:50:46;0.40;99.90
15156;DHT22;7678;50.058;8.306;2023-04-06T02:53:14;0.30;99.90
15156;DHT22;7678;50.058;8.306;2023-04-06T02:55:42;0.20;99.90
15156;DHT22;7678;50.058;8.306;2023-04-06T02:58:10;0.20;99.90
15156;DHT22;7678;50.058;8.306;2023-04-06T03:00:38;0.30;99.90
15156;DHT22;7678;50.058;8.306;2023-04-06T03:03:06;0.30;99.90
15156;DHT22;7678;50.058;8.306;2023-04-06T03:05:35;0.20;99.90
15156;DHT22;7678;50.058;8.306;2023-04-06T03:08:05;0.30;99.90
15156;DHT22;7678;50.058;8.306;2023-04-06T03:10:33;0.20;99.90
15156;DHT22;7678;50.058;8.306;2023-04-06T03:13:01;0.20;99.90
15156;DHT22;7678;50.058;8.306;2023-04-06T03:15:29;0.30;99.90
15156;DHT22;7678;50.058;8.306;2023-04-06T03:17:58;0.20;99.90
15156;DHT22;7678;50.058;8.306;2023-04-06T03:20:26;0.10;99.90
15156;DHT22;7678;50.058;8.306;2023-04-06T03:22:54;0.10;99.90
15156;DHT22;7678;50.058;8.306;2023-04-06T03:25:24;0.10;99.90
15156;DHT22;7678;50.058;8.306;2023-04-06T03:27:52;0.30;99.90
15156;DHT22;7678;50.058;8.306;2023-04-06T03:30:20;0.20;99.90
15156;DHT22;7678;50.058;8.306;2023-04-06T03:32:48;0.30;99.90
15156;DHT22;7678;50.058;8.306;2023-04-06T03:35:17;0.20;99.90
15156;DHT22;7678;50.058;8.306;2023-04-06T03:37:45;0.20;99.90
15156;DHT22;7678;50.058;8.306;2023-04-06T03:40:13;0.40;99.90
15156;DHT22;7678;50.058;8.306;2023-04-06T03:42:42;0.10;99.90
15156;DHT22;7678;50.058;8.306;2023-04-06T03:45:10;0.00;99.90
15156;DHT22;7678;50.058;8.306;2023-04-06T03:47:39;0.00;99.90
15156;DHT22;7678;50.058;8.306;2023-04-06T03:50:08;0.00;99.90
15156;DHT22;7678;50.058;8.306;2023-04-06T03:52:37;0.00;99.90
15156;DHT22;7678;50.058;8.306;2023-04-06T03:55:07;0.00;99.90
15156;DHT22;7678;50.058;8.306;2023-04-06T03:57:35;-0.20;99.90
15156;DHT22;7678;50.058;8.306;2023-04-06T04:00:07;-0.20;99.90
15156;DHT22;7678;50.058;8.306;2023-04-06T04:02:35;-0.20;99.90
15156;DHT22;7678;50.058;8.306;2023-04-06T04:05:04;-0.10;99.90
15156;DHT22;7678;50.058;8.306;2023-04-06T04:07:32;-0.10;99.90
15156;DHT22;7678;50.058;8.306;2023-04-06T04:10:00;0.00;99.90
15156;DHT22;7678;50.058;8.306;2023-04-06T04:12:28;-0.10;99.90
15156;DHT22;7678;50.058;8.306;2023-04-06T04:14:56;0.00;99.90
15156;DHT22;7678;50.058;8.306;2023-04-06T04:17:26;0.00;99.90
15156;DHT22;7678;50.058;8.306;2023-04-06T04:19:54;0.00;99.90
15156;DHT22;7678;50.058;8.306;2023-04-06T04:22:22;-0.10;99.90
15156;DHT22;7678;50.058;8.306;2023-04-06T04:24:50;-0.10;99.90
15156;DHT22;7678;50.058;8.306;2023-04-06T04:27:18;-0.20;99.90
15156;DHT22;7678;50.058;8.306;2023-04-06T04:29:47;-0.20;99.90
15156;DHT22;7678;50.058;8.306;2023-04-06T04:32:16;-0.10;99.90
15156;DHT22;7678;50.058;8.306;2023-04-06T04:34:45;-0.20;99.90
15156;DHT22;7678;50.058;8.306;2023-04-06T04:37:13;-0.30;99.90
15156;DHT22;7678;50.058;8.306;2023-04-06T04:39:41;-0.30;99.90
15156;DHT22;7678;50.058;8.306;2023-04-06T04:42:09;-0.30;99.90
15156;DHT22;7678;50.058;8.306;2023-04-06T04:44:38;-0.20;99.90
15156;DHT22;7678;50.058;8.306;2023-04-06T04:47:06;0.00;99.90
15156;DHT22;7678;50.058;8.306;2023-04-06T04:49:34;-0.30;99.90
15156;DHT22;7678;50.058;8.306;2023-04-06T04:52:03;-0.50;99.90
15156;DHT22;7678;50.058;8.306;2023-04-06T04:54:32;-0.40;99.90
15156;DHT22;7678;50.058;8.306;2023-04-06T04:57:00;-0.50;99.90
15156;DHT22;7678;50.058;8.306;2023-04-06T04:59:28;-0.30;99.90
15156;DHT22;7678;50.058;8.306;2023-04-06T05:01:56;-0.30;99.90
15156;DHT22;7678;50.058;8.306;2023-04-06T05:04:25;-0.40;99.90
15156;DHT22;7678;50.058;8.306;2023-04-06T05:07:04;-0.40;99.90
15156;DHT22;7678;50.058;8.306;2023-04-06T05:09:32;-0.40;99.90
15156;DHT22;7678;50.058;8.306;2023-04-06T05:12:01;-0.30;99.90
15156;DHT22;7678;50.058;8.306;2023-04-06T05:14:29;-0.30;99.90
15156;DHT22;7678;50.058;8.306;2023-04-06T05:16:57;-0.40;99.90
15156;DHT22;7678;50.058;8.306;2023-04-06T05:19:25;-0.30;99.90
15156;DHT22;7678;50.058;8.306;2023-04-06T05:21:53;-0.30;99.90
15156;DHT22;7678;50.058;8.306;2023-04-06T05:24:23;-0.30;99.90
15156;DHT22;7678;50.058;8.306;2023-04-06T05:26:52;-0.10;99.90
15156;DHT22;7678;50.058;8.306;2023-04-06T05:29:20;0.00;99.90
15156;DHT22;7678;50.058;8.306;2023-04-06T05:31:48;0.10;99.90
15156;DHT22;7678;50.058;8.306;2023-04-06T05:34:16;0.00;99.90
15156;DHT22;7678;50.058;8.306;2023-04-06T05:36:45;0.00;99.90
15156;DHT22;7678;50.058;8.306;2023-04-06T05:39:13;0.30;99.90
15156;DHT22;7678;50.058;8.306;2023-04-06T05:41:43;0.40;99.90
15156;DHT22;7678;50.058;8.306;2023-04-06T05:44:11;0.40;99.90
15156;DHT22;7678;50.058;8.306;2023-04-06T05:46:39;0.50;99.90
15156;DHT22;7678;50.058;8.306;2023-04-06T05:49:08;0.60;99.90
15156;DHT22;7678;50.058;8.306;2023-04-06T05:51:36;0.60;99.90
15156;DHT22;7678;50.058;8.306;2023-04-06T05:54:05;0.60;99.90
15156;DHT22;7678;50.058;8.306;2023-04-06T05:56:33;0.70;99.90
15156;DHT22;7678;50.058;8.306;2023-04-06T05:59:02;0.80;99.90
15156;DHT22;7678;50.058;8.306;2023-04-06T06:01:30;0.90;99.90
15156;DHT22;7678;50.058;8.306;2023-04-06T06:04:00;0.90;99.90
15156;DHT22;7678;50.058;8.306;2023-04-06T06:06:28;1.00;99.90
15156;DHT22;7678;50.058;8.306;2023-04-06T06:08:57;1.20;99.90
15156;DHT22;7678;50.058;8.306;2023-04-06T06:11:27;1.30;99.90
15156;DHT22;7678;50.058;8.306;2023-04-06T06:13:56;1.40;99.90
15156;DHT22;7678;50.058;8.306;2023-04-06T06:16:25;1.40;99.90
15156;DHT22;7678;50.058;8.306;2023-04-06T06:18:53;1.30;99.90
15156;DHT22;7678;50.058;8.306;2023-04-06T06:21:21;1.40;99.90
15156;DHT22;7678;50.058;8.306;2023-04-06T06:23:49;1.40;99.90
15156;DHT22;7678;50.058;8.306;2023-04-06T06:26:17;1.60;99.90
15156;DHT22;7678;50.058;8.306;2023-04-06T06:28:45;1.70;99.90
15156;DHT22;7678;50.058;8.306;2023-04-06T06:31:14;1.70;99.90
15156;DHT22;7678;50.058;8.306;2023-04-06T06:33:43;1.70;99.90
15156;DHT22;7678;50.058;8.306;2023-04-06T06:36:11;1.80;99.90
15156;DHT22;7678;50.058;8.306;2023-04-06T06:38:39;1.90;99.90
15156;DHT22;7678;50.058;8.306;2023-04-06T06:41:08;2.00;99.90
15156;DHT22;7678;50.058;8.306;2023-04-06T06:43:36;2.20;99.90
15156;DHT22;7678;50.058;8.306;2023-04-06T06:46:04;2.30;99.90
15156;DHT22;7678;50.058;8.306;2023-04-06T06:48:33;2.40;99.90
15156;DHT22;7678;50.058;8.306;2023-04-06T06:51:03;2.40;99.90
15156;DHT22;7678;50.058;8.306;2023-04-06T06:53:31;2.50;99.90
15156;DHT22;7678;50.058;8.306;2023-04-06T06:55:59;2.60;99.90
15156;DHT22;7678;50.058;8.306;2023-04-06T06:58:27;2.60;99.90
15156;DHT22;7678;50.058;8.306;2023-04-06T07:00:56;2.80;99.90
15156;DHT22;7678;50.058;8.306;2023-04-06T07:03:25;2.90;99.90
15156;DHT22;7678;50.058;8.306;2023-04-06T07:05:55;3.00;99.90
15156;DHT22;7678;50.058;8.306;2023-04-06T07:08:24;3.00;99.90
15156;DHT22;7678;50.058;8.306;2023-04-06T07:10:53;3.00;99.90
15156;DHT22;7678;50.058;8.306;2023-04-06T07:13:23;3.10;99.90
15156;DHT22;7678;50.058;8.306;2023-04-06T07:15:51;3.10;99.90
15156;DHT22;7678;50.058;8.306;2023-04-06T07:18:19;3.20;99.90
15156;DHT22;7678;50.058;8.306;2023-04-06T07:20:47;3.20;99.90
15156;DHT22;7678;50.058;8.306;2023-04-06T07:23:15;3.40;99.90
15156;DHT22;7678;50.058;8.306;2023-04-06T07:25:45;3.50;98.30
15156;DHT22;7678;50.058;8.306;2023-04-06T07:28:13;3.60;98.30
15156;DHT22;7678;50.058;8.306;2023-04-06T07:30:42;3.70;98.60
15156;DHT22;7678;50.058;8.306;2023-04-06T07:33:12;3.80;99.60
15156;DHT22;7678;50.058;8.306;2023-04-06T07:35:40;3.90;97.30
15156;DHT22;7678;50.058;8.306;2023-04-06T07:38:08;4.00;98.50
15156;DHT22;7678;50.058;8.306;2023-04-06T07:40:36;3.80;99.70
15156;DHT22;7678;50.058;8.306;2023-04-06T07:43:05;4.00;97.00
15156;DHT22;7678;50.058;8.306;2023-04-06T07:45:35;4.20;96.20
15156;DHT22;7678;50.058;8.306;2023-04-06T07:48:03;4.30;96.00
15156;DHT22;7678;50.058;8.306;2023-04-06T07:50:34;4.20;95.10
15156;DHT22;7678;50.058;8.306;2023-04-06T07:53:02;4.30;94.60
15156;DHT22;7678;50.058;8.306;2023-04-06T07:55:30;4.30;94.80
15156;DHT22;7678;50.058;8.306;2023-04-06T07:57:58;4.20;93.70
15156;DHT22;7678;50.058;8.306;2023-04-06T08:00:28;4.30;95.90
15156;DHT22;7678;50.058;8.306;2023-04-06T08:02:56;4.60;96.00
15156;DHT22;7678;50.058;8.306;2023-04-06T08:05:24;4.60;94.10
15156;DHT22;7678;50.058;8.306;2023-04-06T08:07:53;4.60;93.80
15156;DHT22;7678;50.058;8.306;2023-04-06T08:10:21;4.70;94.30
15156;DHT22;7678;50.058;8.306;2023-04-06T08:12:50;4.80;95.90
15156;DHT22;7678;50.058;8.306;2023-04-06T08:15:18;4.80;93.30
15156;DHT22;7678;50.058;8.306;2023-04-06T08:17:47;4.80;94.60
15156;DHT22;7678;50.058;8.306;2023-04-06T08:20:15;5.00;94.70
15156;DHT22;7678;50.058;8.306;2023-04-06T08:22:43;5.10;91.00
15156;DHT22;7678;50.058;8.306;2023-04-06T08:25:11;5.20;90.90
15156;DHT22;7678;50.058;8.306;2023-04-06T08:27:39;5.30;90.70
15156;DHT22;7678;50.058;8.306;2023-04-06T08:30:08;5.30;91.20
15156;DHT22;7678;50.058;8.306;2023-04-06T08:32:36;5.40;90.60
15156;DHT22;7678;50.058;8.306;2023-04-06T08:35:06;5.50;86.80
15156;DHT22;7678;50.058;8.306;2023-04-06T08:37:35;5.60;81.40
15156;DHT22;7678;50.058;8.306;2023-04-06T08:40:03;5.60;81.60
15156;DHT22;7678;50.058;8.306;2023-04-06T08:42:33;5.60;83.00
15156;DHT22;7678;50.058;8.306;2023-04-06T08:45:01;5.80;80.10
15156;DHT22;7678;50.058;8.306;2023-04-06T08:47:29;5.80;75.50
15156;DHT22;7678;50.058;8.306;2023-04-06T08:49:58;5.90;75.10
15156;DHT22;7678;50.058;8.306;2023-04-06T08:52:32;6.10;76.10
15156;DHT22;7678;50.058;8.306;2023-04-06T08:55:00;6.20;76.30
15156;DHT22;7678;50.058;8.306;2023-04-06T08:57:29;6.30;76.80
15156;DHT22;7678;50.058;8.306;2023-04-06T09:00:00;6.30;67.20
15156;DHT22;7678;50.058;8.306;2023-04-06T09:02:28;6.20;69.60
15156;DHT22;7678;50.058;8.306;2023-04-06T09:04:57;6.00;63.20
15156;DHT22;7678;50.058;8.306;2023-04-06T09:07:29;6.20;65.80
15156;DHT22;7678;50.058;8.306;2023-04-06T09:09:57;6.60;63.70
15156;DHT22;7678;50.058;8.306;2023-04-06T09:12:27;6.60;63.40
15156;DHT22;7678;50.058;8.306;2023-04-06T09:14:56;6.60;65.30
15156;DHT22;7678;50.058;8.306;2023-04-06T09:17:25;6.50;65.80
15156;DHT22;7678;50.058;8.306;2023-04-06T09:19:54;6.70;68.60
15156;DHT22;7678;50.058;8.306;2023-04-06T09:22:23;6.50;65.20
15156;DHT22;7678;50.058;8.306;2023-04-06T09:24:55;6.50;67.80
15156;DHT22;7678;50.058;8.306;2023-04-06T09:27:33;6.70;66.80
15156;DHT22;7678;50.058;8.306;2023-04-06T09:30:09;6.90;66.00
15156;DHT22;7678;50.058;8.306;2023-04-06T09:32:48;7.30;67.60
15156;DHT22;7678;50.058;8.306;2023-04-06T09:35:17;7.40;67.10
15156;DHT22;7678;50.058;8.306;2023-04-06T09:37:46;7.30;66.10
15156;DHT22;7678;50.058;8.306;2023-04-06T09:40:16;7.40;66.60
15156;DHT22;7678;50.058;8.306;2023-04-06T09:42:47;7.40;65.70
15156;DHT22;7678;50.058;8.306;2023-04-06T09:45:16;7.30;64.90
15156;DHT22;7678;50.058;8.306;2023-04-06T09:47:45;7.50;67.30
15156;DHT22;7678;50.058;8.306;2023-04-06T09:50:14;7.60;66.90
15156;DHT22;7678;50.058;8.306;2023-04-06T09:52:47;7.60;67.10
15156;DHT22;7678;50.058;8.306;2023-04-06T09:55:23;7.90;68.60
15156;DHT22;7678;50.058;8.306;2023-04-06T09:57:57;7.90;68.20
15156;DHT22;7678;50.058;8.306;2023-04-06T10:00:32;7.80;67.30
15156;DHT22;7678;50.058;8.306;2023-04-06T10:03:08;7.90;66.60
15156;DHT22;7678;50.058;8.306;2023-04-06T10:05:45;8.00;67.50
15156;DHT22;7678;50.058;8.306;2023-04-06T10:08:14;8.10;66.60
15156;DHT22;7678;50.058;8.306;2023-04-06T10:10:45;8.10;65.70
15156;DHT22;7678;50.058;8.306;2023-04-06T10:13:13;8.30;66.10
15156;DHT22;7678;50.058;8.306;2023-04-06T10:15:42;8.60;64.00
15156;DHT22;7678;50.058;8.306;2023-04-06T10:18:10;8.70;65.30
15156;DHT22;7678;50.058;8.306;2023-04-06T10:20:42;8.90;62.90
15156;DHT22;7678;50.058;8.306;2023-04-06T10:23:13;9.10;62.90
15156;DHT22;7678;50.058;8.306;2023-04-06T10:25:54;9.30;62.50
15156;DHT22;7678;50.058;8.306;2023-04-06T10:28:22;9.40;61.20
15156;DHT22;7678;50.058;8.306;2023-04-06T10:30:57;9.50;60.70
15156;DHT22;7678;50.058;8.306;2023-04-06T10:33:25;9.40;61.70
15156;DHT22;7678;50.058;8.306;2023-04-06T10:35:54;9.60;62.10
15156;DHT22;7678;50.058;8.306;2023-04-06T10:38:33;9.80;60.70
15156;DHT22;7678;50.058;8.306;2023-04-06T10:41:09;10.10;58.90
15156;DHT22;7678;50.058;8.306;2023-04-06T10:43:38;10.20;57.80
15156;DHT22;7678;50.058;8.306;2023-04-06T10:46:08;10.40;58.60
15156;DHT22;7678;50.058;8.306;2023-04-06T10:48:38;10.50;57.50
15156;DHT22;7678;50.058;8.306;2023-04-06T10:51:11;11.00;56.90
15156;DHT22;7678;50.058;8.306;2023-04-06T10:53:41;11.10;56.20
15156;DHT22;7678;50.058;8.306;2023-04-06T10:56:14;11.00;56.90
15156;DHT22;7678;50.058;8.306;2023-04-06T10:58:45;11.30;56.80
15156;DHT22;7678;50.058;8.306;2023-04-06T11:01:15;11.50;56.40
15156;DHT22;7678;50.058;8.306;2023-04-06T11:03:43;11.70;55.60
15156;DHT22;7678;50.058;8.306;2023-04-06T11:06:18;11.80;54.30
15156;DHT22;7678;50.058;8.306;2023-04-06T11:08:46;12.00;52.40
15156;DHT22;7678;50.058;8.306;2023-04-06T11:11:17;12.00;53.20
15156;DHT22;7678;50.058;8.306;2023-04-06T11:13:48;12.00;52.90
15156;DHT22;7678;50.058;8.306;2023-04-06T11:16:18;11.90;52.80
15156;DHT22;7678;50.058;8.306;2023-04-06T11:18:51;12.00;51.50
15156;DHT22;7678;50.058;8.306;2023-04-06T11:21:32;12.40;50.70
15156;DHT22;7678;50.058;8.306;2023-04-06T11:24:07;12.40;50.50
15156;DHT22;7678;50.058;8.306;2023-04-06T11:26:42;12.60;49.70
15156;DHT22;7678;50.058;8.306;2023-04-06T11:29:12;12.50;48.70
15156;DHT22;7678;50.058;8.306;2023-04-06T11:31:41;12.70;49.30
15156;DHT22;7678;50.058;8.306;2023-04-06T11:34:11;12.50;48.20
15156;DHT22;7678;50.058;8.306;2023-04-06T11:36:41;12.80;48.70
15156;DHT22;7678;50.058;8.306;2023-04-06T11:39:10;12.40;48.70
15156;DHT22;7678;50.058;8.306;2023-04-06T11:41:38;12.70;50.10
15156;DHT22;7678;50.058;8.306;2023-04-06T11:44:11;13.00;49.40
15156;DHT22;7678;50.058;8.306;2023-04-06T11:46:39;13.00;49.60
15156;DHT22;7678;50.058;8.306;2023-04-06T11:49:07;13.00;48.00
15156;DHT22;7678;50.058;8.306;2023-04-06T11:51:36;13.10;48.10
15156;DHT22;7678;50.058;8.306;2023-04-06T11:54:04;13.10;47.80
15156;DHT22;7678;50.058;8.306;2023-04-06T11:56:32;13.00;47.20
15156;DHT22;7678;50.058;8.306;2023-04-06T11:59:00;13.00;47.10
15156;DHT22;7678;50.058;8.306;2023-04-06T12:01:30;13.10;47.60
15156;DHT22;7678;50.058;8.306;2023-04-06T12:04:04;13.10;46.60
15156;DHT22;7678;50.058;8.306;2023-04-06T12:06:33;13.20;46.70
15156;DHT22;7678;50.058;8.306;2023-04-06T12:09:01;13.20;47.30
15156;DHT22;7678;50.058;8.306;2023-04-06T12:11:30;13.30;47.40
15156;DHT22;7678;50.058;8.306;2023-04-06T12:13:58;13.40;45.30
15156;DHT22;7678;50.058;8.306;2023-04-06T12:16:29;13.40;45.00
15156;DHT22;7678;50.058;8.306;2023-04-06T12:18:57;13.60;45.60
15156;DHT22;7678;50.058;8.306;2023-04-06T12:21:27;13.40;45.20
15156;DHT22;7678;50.058;8.306;2023-04-06T12:23:55;13.30;44.40
15156;DHT22;7678;50.058;8.306;2023-04-06T12:26:23;13.40;43.50
15156;DHT22;7678;50.058;8.306;2023-04-06T12:28:51;13.60;44.40
15156;DHT22;7678;50.058;8.306;2023-04-06T12:31:21;13.80;43.50
15156;DHT22;7678;50.058;8.306;2023-04-06T12:33:51;14.10;42.70
15156;DHT22;7678;50.058;8.306;2023-04-06T12:36:20;14.00;41.70
15156;DHT22;7678;50.058;8.306;2023-04-06T12:38:49;14.00;41.60
15156;DHT22;7678;50.058;8.306;2023-04-06T12:41:18;13.90;41.50
15156;DHT22;7678;50.058;8.306;2023-04-06T12:43:46;14.00;42.00
15156;DHT22;7678;50.058;8.306;2023-04-06T12:46:14;14.20;41.20
15156;DHT22;7678;50.058;8.306;2023-04-06T12:48:46;13.90;40.60
15156;DHT22;7678;50.058;8.306;2023-04-06T12:51:15;13.90;40.80
15156;DHT22;7678;50.058;8.306;2023-04-06T12:53:44;13.90;41.50
15156;DHT22;7678;50.058;8.306;2023-04-06T12:56:13;14.10;41.70
15156;DHT22;7678;50.058;8.306;2023-04-06T12:58:42;14.10;41.40
15156;DHT22;7678;50.058;8.306;2023-04-06T13:01:16;14.30;41.30
15156;DHT22;7678;50.058;8.306;2023-04-06T13:03:49;14.20;41.10
15156;DHT22;7678;50.058;8.306;2023-04-06T13:06:19;14.50;40.70
15156;DHT22;7678;50.058;8.306;2023-04-06T13:08:48;14.20;40.10
15156;DHT22;7678;50.058;8.306;2023-04-06T13:11:17;14.30;40.70
15156;DHT22;7678;50.058;8.306;2023-04-06T13:13:47;14.40;40.20
15156;DHT22;7678;50.058;8.306;2023-04-06T13:16:15;14.10;40.00
15156;DHT22;7678;50.058;8.306;2023-04-06T13:18:43;14.20;40.90
15156;DHT22;7678;50.058;8.306;2023-04-06T13:21:14;14.20;40.20
15156;DHT22;7678;50.058;8.306;2023-04-06T13:23:44;14.10;40.80
15156;DHT22;7678;50.058;8.306;2023-04-06T13:26:12;14.40;39.40
15156;DHT22;7678;50.058;8.306;2023-04-06T13:28:41;14.50;39.80
15156;DHT22;7678;50.058;8.306;2023-04-06T13:31:10;14.70;40.00
15156;DHT22;7678;50.058;8.306;2023-04-06T13:33:38;14.30;38.00
15156;DHT22;7678;50.058;8.306;2023-04-06T13:36:07;14.20;38.60
15156;DHT22;7678;50.058;8.306;2023-04-06T13:38:36;13.80;39.00
15156;DHT22;7678;50.058;8.306;2023-04-06T13:41:07;14.30;41.00
15156;DHT22;7678;50.058;8.306;2023-04-06T13:43:35;14.50;39.50
15156;DHT22;7678;50.058;8.306;2023-04-06T13:46:03;14.50;38.90
15156;DHT22;7678;50.058;8.306;2023-04-06T13:48:31;14.40;40.00
15156;DHT22;7678;50.058;8.306;2023-04-06T13:51:08;14.50;40.20
15156;DHT22;7678;50.058;8.306;2023-04-06T13:53:36;14.30;39.70
15156;DHT22;7678;50.058;8.306;2023-04-06T13:56:08;14.40;40.00
15156;DHT22;7678;50.058;8.306;2023-04-06T13:58:37;14.30;39.00
15156;DHT22;7678;50.058;8.306;2023-04-06T14:01:05;14.20;39.40
15156;DHT22;7678;50.058;8.306;2023-04-06T14:03:34;14.10;38.80
15156;DHT22;7678;50.058;8.306;2023-04-06T14:06:10;14.10;38.60
15156;DHT22;7678;50.058;8.306;2023-04-06T14:08:53;14.20;38.90
15156;DHT22;7678;50.058;8.306;2023-04-06T14:11:22;14.10;39.40
15156;DHT22;7678;50.058;8.306;2023-04-06T14:13:50;14.10;39.10
15156;DHT22;7678;50.058;8.306;2023-04-06T14:16:21;14.00;38.40
15156;DHT22;7678;50.058;8.306;2023-04-06T14:18:49;14.00;38.80
15156;DHT22;7678;50.058;8.306;2023-04-06T14:21:17;14.10;40.40
15156;DHT22;7678;50.058;8.306;2023-04-06T14:23:46;14.20;39.90
15156;DHT22;7678;50.058;8.306;2023-04-06T14:26:14;14.10;39.10
15156;DHT22;7678;50.058;8.306;2023-04-06T14:28:44;13.90;39.10
15156;DHT22;7678;50.058;8.306;2023-04-06T14:31:13;13.80;39.70
15156;DHT22;7678;50.058;8.306;2023-04-06T14:33:42;13.90;39.90
15156;DHT22;7678;50.058;8.306;2023-04-06T14:36:10;13.80;40.40
15156;DHT22;7678;50.058;8.306;2023-04-06T14:38:38;13.70;40.00
15156;DHT22;7678;50.058;8.306;2023-04-06T14:41:08;13.70;39.50
15156;DHT22;7678;50.058;8.306;2023-04-06T14:43:37;13.50;38.80
15156;DHT22;7678;50.058;8.306;2023-04-06T14:46:06;13.40;38.70
15156;DHT22;7678;50.058;8.306;2023-04-06T14:48:35;13.50;39.80
15156;DHT22;7678;50.058;8.306;2023-04-06T14:51:03;13.60;39.10
15156;DHT22;7678;50.058;8.306;2023-04-06T14:53:31;13.40;40.50
15156;DHT22;7678;50.058;8.306;2023-04-06T14:55:59;13.40;40.70
15156;DHT22;7678;50.058;8.306;2023-04-06T14:58:27;13.30;39.40
15156;DHT22;7678;50.058;8.306;2023-04-06T15:00:55;13.30;37.60
15156;DHT22;7678;50.058;8.306;2023-04-06T15:03:26;13.10;37.20
15156;DHT22;7678;50.058;8.306;2023-04-06T15:05:55;13.10;37.40
15156;DHT22;7678;50.058;8.306;2023-04-06T15:08:23;12.90;36.50
15156;DHT22;7678;50.058;8.306;2023-04-06T15:10:52;12.80;36.60
15156;DHT22;7678;50.058;8.306;2023-04-06T15:13:21;12.90;38.00
15156;DHT22;7678;50.058;8.306;2023-04-06T15:15:50;12.90;37.50
15156;DHT22;7678;50.058;8.306;2023-04-06T15:18:19;13.00;38.10
15156;DHT22;7678;50.058;8.306;2023-04-06T15:20:48;13.00;37.80
15156;DHT22;7678;50.058;8.306;2023-04-06T15:23:17;13.00;37.60
15156;DHT22;7678;50.058;8.306;2023-04-06T15:25:45;12.80;38.60
15156;DHT22;7678;50.058;8.306;2023-04-06T15:28:13;12.80;39.10
15156;DHT22;7678;50.058;8.306;2023-04-06T15:30:41;12.80;38.30
15156;DHT22;7678;50.058;8.306;2023-04-06T15:33:09;12.80;37.80
15156;DHT22;7678;50.058;8.306;2023-04-06T15:35:37;12.80;38.40
15156;DHT22;7678;50.058;8.306;2023-04-06T15:38:08;12.80;37.90
15156;DHT22;7678;50.058;8.306;2023-04-06T15:40:42;12.60;37.30
15156;DHT22;7678;50.058;8.306;2023-04-06T15:43:10;12.80;38.70
15156;DHT22;7678;50.058;8.306;2023-04-06T15:45:39;12.80;39.10
15156;DHT22;7678;50.058;8.306;2023-04-06T15:48:07;12.70;39.30
15156;DHT22;7678;50.058;8.306;2023-04-06T15:50:35;12.60;39.10
15156;DHT22;7678;50.058;8.306;2023-04-06T15:53:03;12.50;39.90
15156;DHT22;7678;50.058;8.306;2023-04-06T15:55:33;12.30;39.60
15156;DHT22;7678;50.058;8.306;2023-04-06T15:58:01;12.20;39.10
15156;DHT22;7678;50.058;8.306;2023-04-06T16:00:29;12.20;39.50
15156;DHT22;7678;50.058;8.306;2023-04-06T16:02:57;12.10;39.40
15156;DHT22;7678;50.058;8.306;2023-04-06T16:05:25;12.20;40.60
15156;DHT22;7678;50.058;8.306;2023-04-06T16:07:59;12.10;40.80